KASL/ASL METAR and TAF weather

Enter ICAO airport designator
Station Type Date Time Source
KASL METAR 2022/01/26 19:15 UTC NOAA

KASL 261915Z AUTO 07004KT 10SM CLR 07/M11 A3037 RMK AO1 T00721107


Station Type Date Time Source
KASL Decoded METAR 2022/01/26 19:15 UTC NOAA

Station name not available
Jan 26, 2022 - 02:15 PM EST / 2022.01.26 1915 UTC
Wind: from the ENE (070 degrees) at 5 MPH (4 KT):0
Visibility: 10 mile(s):0
Sky conditions: clear
Temperature: 45.0 F (7.2 C)
Dew Point: 12.7 F (-10.7 C)
Relative Humidity: 26%
Pressure (altimeter): 30.37 in. Hg (1028 hPa)
ob: KASL 261915Z AUTO 07004KT 10SM CLR 07/M11 A3037 RMK AO1 T00721107
cycle: 19

Station Type Date Time Source
KASL TAF UTC NOAA

Error!

Example: see airport list